Terminal Aerodrome Forecast
Issued by NWS Tulsa, OK

Home | Current Version | Previous Version | Text Only | Print | Product List | Glossary On
Versions: 1 2 3 4 5 6 7 8 9 10 11 12 13 14
000
FTUS44 KTSA 271200 AAA
TAFTUL
TAF AMD
KTUL 271259Z 2713/2812 34008KT 6SM -SN OVC045
      TEMPO 2713/2716 2SM -SN BKN022 OVC045
     FM271600 35012KT P6SM OVC070
     FM280300 34006KT P6SM SCT100=

USA.gov is the U.S. government's official web portal to all federal, state and local government web resources and services.